Time;durP1;ratioP1;P1;durP2;ratioP2;P2;SDS_P1;SDS_P2;PMS_P1;PMS_P2;Temp;Humidity;BMP_temperature;BMP_pressure;BME280_temperature;BME280_humidity;BME280_pressure;Samples;Min_cycle;Max_cycle;Signal;HPM_P1;HPM_P2
2023/11/01 00:00:27;;;;;;;6.78;1.30;;;;;;;11.83;100.00;98595.88;4870677;29;20081;-95
2023/11/01 00:02:53;;;;;;;7.55;1.05;;;;;;;11.79;100.00;98612.91;4870786;29;20045;-94
2023/11/01 00:05:28;;;;;;;10.70;1.25;;;;;;;11.84;100.00;98619.81;4886900;29;20041;-93
2023/11/01 00:07:54;;;;;;;5.65;1.13;;;;;;;11.91;100.00;98629.38;4870766;29;20055;-94
2023/11/01 00:10:29;;;;;;;3.13;1.20;;;;;;;11.77;100.00;98618.28;4871357;29;20080;-94
2023/11/01 00:13:03;;;;;;;8.88;1.42;;;;;;;12.15;100.00;98676.56;4871366;29;20049;-94
2023/11/01 00:15:31;;;;;;;6.70;1.30;;;;;;;11.72;100.00;98625.56;4871066;29;20080;-94
2023/11/01 00:17:57;;;;;;;5.93;1.27;;;;;;;11.62;100.00;98602.81;4870950;29;20068;-93
2023/11/01 00:20:26;;;;;;;4.13;0.80;;;;;;;12.25;100.00;98736.59;4869890;29;20053;-94
2023/11/01 00:22:57;;;;;;;6.63;1.35;;;;;;;11.65;100.00;98640.00;4870335;29;20053;-95
2023/11/01 00:25:26;;;;;;;8.80;1.25;;;;;;;11.61;100.00;98606.41;4869588;29;20053;-95
2023/11/01 00:27:58;;;;;;;6.53;1.15;;;;;;;12.44;100.00;98748.38;4870255;29;20060;-95
2023/11/01 00:30:26;;;;;;;8.73;1.00;;;;;;;11.73;100.00;98632.63;4869742;29;20064;-95
2023/11/01 00:32:55;;;;;;;5.00;0.88;;;;;;;11.72;100.00;98636.22;4870146;29;20059;-94
2023/11/01 00:35:21;;;;;;;5.20;1.00;;;;;;;11.81;100.00;98651.88;4873052;29;20064;-94
2023/11/01 00:37:58;;;;;;;6.47;1.10;;;;;;;11.78;100.00;98635.16;4873402;29;20102;-95
2023/11/01 00:40:27;;;;;;;6.63;1.10;;;;;;;11.72;100.00;98629.09;4873773;29;20064;-94
2023/11/01 00:42:56;;;;;;;6.35;0.93;;;;;;;11.80;100.00;98638.63;4873449;29;20077;-95
2023/11/01 00:45:33;;;;;;;7.20;1.20;;;;;;;11.82;100.00;98628.75;4872955;29;20064;-94
2023/11/01 00:48:00;;;;;;;5.80;0.85;;;;;;;12.15;100.00;98680.06;4873477;29;20073;-95
2023/11/01 00:50:30;;;;;;;4.93;1.33;;;;;;;11.89;100.00;98638.34;4873094;29;20056;-94
2023/11/01 00:52:56;;;;;;;;;;;;;;;12.80;100.00;98779.16;4874333;29;20049;-95
2023/11/01 00:55:25;;;;;;;3.60;1.08;;;;;;;12.03;100.00;98644.03;4887710;29;19956;-94
2023/11/01 00:57:56;;;;;;;5.88;1.05;;;;;;;12.37;100.00;98698.00;4873636;29;20533;-95
2023/11/01 01:00:23;;;;;;;4.57;1.20;;;;;;;12.15;100.00;98637.44;4873248;29;20049;-93
2023/11/01 01:02:55;;;;;;;4.88;1.00;;;;;;;12.70;100.00;98701.22;4872551;29;20076;-95
2023/11/01 01:05:24;;;;;;;6.70;0.98;;;;;;;12.08;100.00;98602.13;4872368;29;20049;-95
2023/11/01 01:07:55;;;;;;;6.43;0.88;;;;;;;12.18;100.00;98620.44;4872860;29;20053;-95
2023/11/01 01:10:21;;;;;;;5.10;1.15;;;;;;;12.21;100.00;98637.22;4872657;29;20051;-94
2023/11/01 01:12:50;;;;;;;3.40;1.00;;;;;;;12.81;100.00;98746.19;4872822;29;20056;-93
2023/11/01 01:15:19;;;;;;;8.30;1.17;;;;;;;12.24;100.00;98634.44;4872363;29;20053;-95
2023/11/01 01:17:50;;;;;;;4.60;1.00;;;;;;;12.22;100.00;98630.06;4873274;29;20053;-95
2023/11/01 01:20:19;;;;;;;7.15;1.05;;;;;;;12.16;100.00;98635.63;4872794;29;20143;-93
2023/11/01 01:22:46;;;;;;;3.88;0.75;;;;;;;12.28;100.00;98653.84;4872325;29;20041;-94
2023/11/01 01:25:16;;;;;;;3.78;0.90;;;;;;;12.38;100.00;98681.91;4872269;29;20494;-93
2023/11/01 01:27:42;;;;;;;2.75;0.73;;;;;;;11.93;100.00;98608.00;4872240;29;20045;-94
2023/11/01 01:30:19;;;;;;;8.77;1.10;;;;;;;12.18;100.00;98660.44;4872229;29;20049;-94
2023/11/01 01:32:51;;;;;;;4.07;1.02;;;;;;;11.80;100.00;98627.97;4872501;29;20053;-96
2023/11/01 01:35:18;;;;;;;2.47;1.08;;;;;;;11.67;100.00;98619.53;4873074;29;20448;-94
2023/11/01 01:37:44;;;;;;;5.22;1.10;;;;;;;12.05;100.00;98674.19;4871976;29;20045;-94
2023/11/01 01:40:15;;;;;;;5.22;0.80;;;;;;;11.78;100.00;98605.84;4871849;29;20080;-95
2023/11/01 01:42:44;;;;;;;10.02;2.28;;;;;;;11.68;100.00;98622.13;4871694;29;20049;-93
2023/11/01 01:45:10;;;;;;;5.97;1.42;;;;;;;11.62;100.00;98611.66;4871957;29;20052;-95
2023/11/01 01:47:37;;;;;;;7.45;1.17;;;;;;;11.62;100.00;98608.13;4872009;29;20527;-95
2023/11/01 01:50:04;;;;;;;5.10;1.15;;;;;;;11.38;100.00;98585.88;4872242;29;20143;-94
2023/11/01 01:52:31;;;;;;;7.60;1.10;;;;;;;11.31;100.00;98588.72;4871726;29;20049;-96
2023/11/01 01:54:59;;;;;;;3.10;1.17;;;;;;;11.48;100.00;98601.50;4872026;29;20049;-95
2023/11/01 01:57:27;;;;;;;8.18;1.02;;;;;;;11.55;100.00;98602.16;4871967;29;20060;-94
2023/11/01 01:59:56;;;;;;;7.68;1.25;;;;;;;12.05;100.00;98700.84;4887288;29;20080;-94
2023/11/01 02:02:25;;;;;;;7.60;1.15;;;;;;;11.57;100.00;98602.97;4886087;29;20124;-95
2023/11/01 02:04:54;;;;;;;3.47;0.85;;;;;;;11.49;100.00;98586.38;4871824;29;20049;-96
2023/11/01 02:07:20;;;;;;;5.35;1.20;;;;;;;11.47;100.00;98589.13;4871831;29;20064;-95
2023/11/01 02:09:49;;;;;;;4.05;0.90;;;;;;;11.52;100.00;98589.81;4872107;29;20076;-94
2023/11/01 02:12:23;;;;;;;3.92;1.10;;;;;;;11.60;100.00;98589.56;4871871;29;20049;-94
2023/11/01 02:14:59;;;;;;;3.40;0.90;;;;;;;11.62;100.00;98584.16;4871013;29;20049;-95
2023/11/01 02:17:25;;;;;;;6.38;0.85;;;;;;;11.55;100.00;98575.53;4871652;29;20051;-95
2023/11/01 02:19:57;;;;;;;6.10;1.02;;;;;;;11.45;100.00;98576.75;4886913;29;20048;-93
2023/11/01 02:22:26;;;;;;;3.53;1.30;;;;;;;12.18;100.00;98685.28;4886515;29;20380;-94
2023/11/01 02:24:57;;;;;;;6.65;1.15;;;;;;;11.71;100.00;98594.53;4871526;29;20041;-94
2023/11/01 02:27:28;;;;;;;5.55;1.35;;;;;;;11.72;100.00;98586.47;4871177;29;20148;-95
2023/11/01 02:29:54;;;;;;;2.80;0.73;;;;;;;11.73;100.00;98579.34;4870994;29;20491;-94
2023/11/01 02:32:22;;;;;;;8.90;1.40;;;;;;;12.16;100.00;98641.81;4871628;29;20048;-95
2023/11/01 02:34:48;;;;;;;12.15;1.10;;;;;;;12.12;100.00;98626.84;4871415;29;20053;-93
2023/11/01 02:37:17;;;;;;;8.65;2.15;;;;;;;11.77;100.00;98561.47;4871237;29;20068;-94
2023/11/01 02:39:46;;;;;;;7.43;1.15;;;;;;;11.55;100.00;98551.56;4871255;29;20089;-94
2023/11/01 02:42:24;;;;;;;7.68;1.15;;;;;;;11.61;100.00;98567.31;4871862;29;20045;-93
2023/11/01 02:44:57;;;;;;;7.43;0.93;;;;;;;11.66;100.00;98552.03;4870772;29;20078;-94
2023/11/01 02:47:26;;;;;;;15.68;1.73;;;;;;;11.60;100.00;98548.72;4870778;29;20048;-94
2023/11/01 02:49:54;;;;;;;3.33;1.05;;;;;;;11.63;100.00;98554.81;4869370;29;20051;-94
2023/11/01 02:52:23;;;;;;;12.95;2.00;;;;;;;11.51;100.00;98531.28;4870532;29;20048;-93
2023/11/01 02:54:49;;;;;;;5.55;0.90;;;;;;;11.79;100.00;98549.81;4870062;29;20115;-95
2023/11/01 02:57:18;;;;;;;9.32;1.45;;;;;;;11.83;100.00;98558.59;4870315;29;20052;-94
2023/11/01 02:59:45;;;;;;;6.32;1.10;;;;;;;12.37;100.00;98650.84;4869474;29;20447;-94
2023/11/01 03:02:14;;;;;;;9.77;1.27;;;;;;;12.20;100.00;98634.59;4870914;29;20045;-94
2023/11/01 03:04:43;;;;;;;6.55;1.40;;;;;;;11.63;100.00;98530.00;4872113;29;20053;-95
2023/11/01 03:07:22;;;;;;;5.70;1.55;;;;;;;11.52;100.00;98533.03;4875342;29;20059;-95
2023/11/01 03:09:51;;;;;;;4.82;1.30;;;;;;;11.43;100.00;98552.00;4892303;29;20049;-95
2023/11/01 03:12:45;;;;;;;6.03;1.15;;;;;;;11.42;100.00;98544.91;4876091;29;20060;-95
2023/11/01 03:15:28;;;;;;;6.85;1.10;;;;;;;11.35;100.00;98532.75;4876050;29;20116;-96
2023/11/01 03:17:55;;;;;;;4.25;1.05;;;;;;;11.31;100.00;98530.16;4875612;29;20072;-96
2023/11/01 03:20:25;;;;;;;8.75;1.10;;;;;;;11.69;100.00;98578.59;4875031;29;20060;-95
2023/11/01 03:22:51;;;;;;;10.77;1.58;;;;;;;11.38;100.00;98540.63;4874713;29;20069;-95
2023/11/01 03:25:25;;;;;;;6.90;1.25;;;;;;;11.39;100.00;98542.38;4872503;29;20109;-95
2023/11/01 03:27:51;;;;;;;4.47;1.15;;;;;;;11.26;100.00;98526.81;4888391;29;20056;-94
2023/11/01 03:30:22;;;;;;;6.63;1.05;;;;;;;11.31;100.00;98538.16;4872238;29;20053;-95
2023/11/01 03:32:59;;;;;;;6.40;1.48;;;;;;;11.98;100.00;98627.34;4874869;29;20135;-95
2023/11/01 03:35:35;;;;;;;6.65;0.88;;;;;;;11.94;100.00;98631.06;4875324;29;20072;-94
2023/11/01 03:38:02;;;;;;;3.97;1.20;;;;;;;11.26;100.00;98536.59;4875919;29;20080;-95
2023/11/01 03:40:31;;;;;;;4.85;1.05;;;;;;;11.16;100.00;98504.06;4875608;29;20125;-96
2023/11/01 03:43:04;;;;;;;2.83;0.60;;;;;;;11.32;100.00;98520.41;4874566;29;20049;-94
2023/11/01 03:45:35;;;;;;;8.35;1.20;;;;;;;11.17;100.00;98500.50;4869898;29;20480;-95
2023/11/01 03:48:05;;;;;;;12.63;1.70;;;;;;;11.44;100.00;98540.41;4873717;29;20073;-95
2023/11/01 03:50:34;;;;;;;5.78;1.10;;;;;;;11.35;100.00;98509.66;4875064;29;20072;-95
2023/11/01 03:53:03;;;;;;;7.75;1.13;;;;;;;11.31;100.00;98508.00;4872690;29;20507;-95
2023/11/01 03:55:32;;;;;;;5.38;0.90;;;;;;;11.43;100.00;98555.53;4871771;29;20037;-94
2023/11/01 03:58:04;;;;;;;6.22;1.05;;;;;;;11.34;100.00;98529.19;4887836;29;20056;-94
2023/11/01 04:00:39;;;;;;;5.03;1.20;;;;;;;11.38;100.00;98517.50;4871198;29;20056;-95
2023/11/01 04:03:11;;;;;;;8.75;0.93;;;;;;;12.28;100.00;98665.38;4873777;29;20053;-95
2023/11/01 04:05:41;;;;;;;9.68;1.45;;;;;;;12.17;100.00;98640.03;4876075;29;20539;-96
2023/11/01 04:08:07;;;;;;;6.88;1.20;;;;;;;11.24;100.00;98525.97;4873410;29;20118;-96
2023/11/01 04:10:35;;;;;;;5.47;1.10;;;;;;;11.19;100.00;98509.31;4877664;29;20063;-96
2023/11/01 04:13:07;;;;;;;9.45;1.10;;;;;;;11.88;100.00;98609.94;4877162;29;20045;-95
2023/11/01 04:15:36;;;;;;;4.55;0.82;;;;;;;11.26;100.00;98526.81;4874802;29;20045;-95
2023/11/01 04:18:02;;;;;;;8.18;1.15;;;;;;;11.37;100.00;98525.56;4872111;29;20052;-96
2023/11/01 04:20:36;;;;;;;4.10;1.15;;;;;;;11.64;100.00;98556.56;4875325;29;20053;-93
2023/11/01 04:23:05;;;;;;;5.28;0.98;;;;;;;11.38;100.00;98511.31;4889695;29;20053;-94
2023/11/01 04:25:36;;;;;;;5.55;1.65;;;;;;;11.29;100.00;98497.41;4874941;29;20045;-94
2023/11/01 04:28:11;;;;;;;10.70;1.30;;;;;;;12.07;100.00;98608.38;4873084;29;20460;-95
2023/11/01 04:30:41;;;;;;;6.50;1.15;;;;;;;11.50;100.00;98518.91;4873653;29;20049;-94
2023/11/01 04:33:07;;;;;;;;;;;;;;;12.24;100.00;98638.91;4872020;29;20160;-95
2023/11/01 04:35:47;;;;;;;6.20;1.38;;;;;;;11.52;100.00;98509.06;4888387;29;20019;-95
2023/11/01 04:38:19;;;;;;;5.85;1.00;;;;;;;11.45;100.00;98494.22;4875397;29;20053;-96
2023/11/01 04:40:46;;;;;;;6.85;1.17;;;;;;;11.59;100.00;98504.41;4874617;29;20056;-95
2023/11/01 04:43:20;;;;;;;5.00;1.20;;;;;;;11.50;100.00;98489.59;4877549;29;20053;-94
2023/11/01 04:45:54;;;;;;;4.60;1.05;;;;;;;11.34;100.00;98477.75;4875632;29;20047;-95
2023/11/01 04:48:39;;;;;;;7.03;1.30;;;;;;;11.55;100.00;98516.94;4875764;29;20136;-94
2023/11/01 04:51:07;;;;;;;3.90;0.98;;;;;;;11.98;100.00;98613.16;4874107;29;20049;-94
2023/11/01 04:53:42;;;;;;;4.15;1.00;;;;;;;11.14;100.00;98473.97;4877508;29;20422;-95
2023/11/01 04:56:11;;;;;;;5.70;1.20;;;;;;;12.03;100.00;98636.06;4877703;29;20507;-94
2023/11/01 04:58:40;;;;;;;5.80;1.35;;;;;;;11.81;100.00;98603.06;4876666;29;20073;-95
2023/11/01 05:01:16;;;;;;;9.75;1.65;;;;;;;11.01;100.00;98484.16;4874562;29;20053;-96
2023/11/01 05:03:42;;;;;;;3.03;1.10;;;;;;;10.83;100.00;98472.34;4874896;29;20060;-95
2023/11/01 05:06:18;;;;;;;3.05;0.90;;;;;;;10.79;100.00;98488.47;4876624;29;20045;-94
2023/11/01 05:08:50;;;;;;;4.38;0.80;;;;;;;10.94;100.00;98484.44;4876829;29;20052;-96
2023/11/01 05:11:22;;;;;;;5.85;1.25;;;;;;;10.86;100.00;98485.56;4876044;29;20056;-95
2023/11/01 05:13:54;;;;;;;4.90;1.02;;;;;;;10.89;100.00;98495.22;4872135;29;20056;-95
2023/11/01 05:16:25;;;;;;;5.05;0.98;;;;;;;10.77;100.00;98477.88;4728063;29;4354060;-93
2023/11/01 05:18:53;;;;;;;4.10;0.70;;;;;;;10.71;100.00;98469.22;4876208;29;20049;-95
2023/11/01 05:21:26;;;;;;;6.22;2.47;;;;;;;11.23;100.00;98563.28;4874526;29;20049;-94
2023/11/01 05:24:08;;;;;;;3.80;0.93;;;;;;;10.68;100.00;98481.69;4874419;29;20044;-95
2023/11/01 05:26:35;;;;;;;3.58;0.88;;;;;;;10.90;100.00;98519.09;4873174;29;20120;-95
2023/11/01 05:29:09;;;;;;;6.68;1.58;;;;;;;10.89;100.00;98495.22;4871901;29;20056;-95
2023/11/01 05:31:36;;;;;;;12.18;1.10;;;;;;;10.85;100.00;98494.44;4873514;29;20060;-95
2023/11/01 05:34:03;;;;;;;4.82;1.17;;;;;;;10.79;100.00;98489.31;4887105;29;20051;-94
2023/11/01 05:36:35;;;;;;;4.95;1.13;;;;;;;10.85;100.00;98481.16;4872255;29;20056;-94
2023/11/01 05:39:09;;;;;;;5.57;0.80;;;;;;;10.93;100.00;98486.22;4874354;29;20053;-95
2023/11/01 05:41:45;;;;;;;8.20;1.25;;;;;;;11.56;100.00;98587.03;4871648;29;20049;-94
2023/11/01 05:44:17;;;;;;;4.65;0.70;;;;;;;11.50;100.00;98588.13;4888153;29;20052;-94
2023/11/01 05:46:53;;;;;;;2.90;0.70;;;;;;;10.90;100.00;98499.63;4874591;29;20419;-95
2023/11/01 05:49:25;;;;;;;4.38;0.82;;;;;;;10.87;100.00;98510.38;4874683;29;20060;-94
2023/11/01 05:52:07;;;;;;;7.55;1.15;;;;;;;10.92;100.00;98499.56;4874267;29;20057;-94
2023/11/01 05:54:58;;;;;;;6.93;0.90;;;;;;;10.97;100.00;98513.59;4872398;29;20109;-95
2023/11/01 05:57:29;;;;;;;6.43;1.13;;;;;;;10.81;100.00;98486.63;4871332;29;20055;-95
2023/11/01 06:02:59;;;;;;;6.40;1.02;;;;;;;10.93;100.00;98498.63;4868803;29;20051;-94
2023/11/01 06:05:31;;;;;;;4.90;1.15;;;;;;;10.86;100.00;98464.28;4869174;29;20619;-94
2023/11/01 06:08:03;;;;;;;6.55;0.98;;;;;;;10.98;100.00;98484.28;4869005;29;20056;-94
2023/11/01 06:10:32;;;;;;;2.05;0.85;;;;;;;11.12;100.00;98502.44;4870878;29;20128;-94
2023/11/01 06:13:10;;;;;;;6.90;1.08;;;;;;;11.04;100.00;98486.75;4871947;29;20069;-94
2023/11/01 06:15:50;;;;;;;;;;;;;;;;;;;;;
2023/11/01 06:18:22;;;;;;;6.90;1.25;;;;;;;11.12;100.00;98478.47;4873429;29;20053;-95
2023/11/01 06:20:57;;;;;;;5.80;1.70;;;;;;;11.65;100.00;98565.44;4869450;29;20076;-94
2023/11/01 06:23:36;;;;;;;2.85;0.88;;;;;;;11.19;100.00;98493.34;4869009;29;20049;-94
2023/11/01 06:26:08;;;;;;;4.63;1.00;;;;;;;11.39;100.00;98499.78;4868332;29;20412;-93
2023/11/01 06:28:34;;;;;;;5.13;1.02;;;;;;;11.23;100.00;98472.78;4867264;29;20053;-94
2023/11/01 06:31:06;;;;;;;3.15;1.00;;;;;;;11.31;100.00;98497.38;4867490;29;20049;-95
2023/11/01 06:33:35;;;;;;;3.90;0.95;;;;;;;11.39;100.00;98502.44;4867327;29;20052;-96
2023/11/01 06:36:11;;;;;;;4.30;1.10;;;;;;;11.34;100.00;98488.38;4869569;29;20048;-95
2023/11/01 06:38:42;;;;;;;4.80;1.42;;;;;;;11.70;100.00;98552.81;4870083;29;20049;-94
2023/11/01 06:41:19;;;;;;;3.05;0.98;;;;;;;11.48;100.00;98515.41;4869068;29;20053;-95
2023/11/01 06:43:50;;;;;;;5.18;1.15;;;;;;;11.46;100.00;98515.47;4869245;29;20053;-94
2023/11/01 06:46:22;;;;;;;7.45;1.17;;;;;;;11.55;100.00;98519.59;4870355;29;20072;-93
2023/11/01 06:48:51;;;;;;;4.03;1.42;;;;;;;11.51;100.00;98504.66;4871302;29;20502;-95
2023/11/01 06:51:20;;;;;;;1.80;0.93;;;;;;;11.69;100.00;98551.97;4871140;29;20049;-95
2023/11/01 06:53:58;;;;;;;4.00;0.85;;;;;;;11.47;100.00;98514.56;4870587;29;20530;-95
2023/11/01 06:56:30;;;;;;;5.38;1.55;;;;;;;11.46;100.00;98523.44;4871069;29;20044;-94
2023/11/01 06:58:59;;;;;;;4.43;0.93;;;;;;;11.57;100.00;98531.06;4869493;29;20148;-94
2023/11/01 07:01:28;;;;;;;8.38;1.42;;;;;;;11.58;100.00;98539.91;4875589;29;20049;-95
2023/11/01 07:03:57;;;;;;;4.22;1.10;;;;;;;11.64;100.00;98529.06;4874599;29;20045;-94
2023/11/01 07:06:30;;;;;;;4.40;1.30;;;;;;;11.76;100.00;98525.97;4870421;29;20147;-94
2023/11/01 07:09:00;;;;;;;5.22;1.38;;;;;;;11.76;100.00;98525.97;4869181;29;20088;-96
2023/11/01 07:11:42;;;;;;;3.28;1.15;;;;;;;12.17;100.00;98600.94;4872054;29;20053;-94
2023/11/01 07:14:18;;;;;;;4.32;1.55;;;;;;;11.85;100.00;98508.78;4871585;29;20045;-95
2023/11/01 07:16:47;;;;;;;2.17;1.00;;;;;;;12.10;100.00;98549.63;4872208;29;20056;-94
2023/11/01 07:19:16;;;;;;;5.93;1.27;;;;;;;12.90;100.00;98671.13;4870787;29;20045;-95
2023/11/01 07:21:58;;;;;;;5.75;1.38;;;;;;;12.13;100.00;98546.84;4874120;29;20049;-95
2023/11/01 07:24:35;;;;;;;;;;;;;;;12.99;100.00;98693.91;4881474;29;20120;-94
2023/11/01 07:27:19;;;;;;;4.47;1.55;;;;;;;13.11;100.00;98691.66;4895032;29;20358;-95
2023/11/01 07:30:05;;;;;;;6.75;2.65;;;;;;;12.98;100.00;98682.38;4879744;29;20053;-95
2023/11/01 07:32:42;;;;;;;6.72;1.23;;;;;;;12.30;100.00;98545.34;4879524;29;20060;-94
2023/11/01 07:35:18;;;;;;;4.88;1.45;;;;;;;12.97;100.00;98629.03;4879197;29;20049;-96
2023/11/01 07:37:55;;;;;;;2.78;0.98;;;;;;;12.62;100.00;98545.91;4881306;29;20053;-94
2023/11/01 07:40:33;;;;;;;8.02;1.23;;;;;;;13.45;100.00;98682.34;4880358;29;20056;-96
2023/11/01 07:43:09;;;;;;;11.93;1.42;;;;;;;13.63;100.00;98693.22;4880371;29;20072;-95
2023/11/01 07:45:47;;;;;;;3.92;0.90;;;;;;;12.91;100.00;98560.78;4883317;29;20045;-95
2023/11/01 07:55:59;;;;;;;5.82;1.30;;;;;;;12.78;100.00;98538.19;4883296;29;20494;-95
2023/11/01 07:59:16;;;;;;;;;;;;;;;;;;;;;
2023/11/01 08:05:26;;;;;;;5.32;1.35;;;;;;;13.19;100.00;98586.38;4881634;29;20472;-95
2023/11/01 08:08:23;;;;;;;6.43;1.30;;;;;;;13.04;100.00;98566.50;4880815;29;20059;-95
2023/11/01 08:11:04;;;;;;;5.10;1.17;;;;;;;13.58;100.00;98647.13;4889055;29;20049;-96
2023/11/01 08:14:13;;;;;;;;;;;;;;;;;;;;;
2023/11/01 08:20:40;;;;;;;3.72;0.93;;;;;;;13.46;100.00;98593.25;4899208;29;20057;-94
2023/11/01 08:23:16;;;;;;;5.30;1.10;;;;;;;13.45;100.00;98578.19;4882264;29;20049;-95
2023/11/01 08:25:43;;;;;;;6.40;1.52;;;;;;;13.52;100.00;98593.00;4881684;29;20491;-95
2023/11/01 08:28:30;;;;;;;7.55;1.23;;;;;;;13.61;100.00;98596.22;4896390;29;20072;-96
2023/11/01 08:31:03;;;;;;;4.22;1.52;;;;;;;13.80;100.00;98618.56;4896889;29;20049;-95
2023/11/01 08:33:41;;;;;;;4.25;1.13;;;;;;;13.75;100.00;98585.84;4894698;29;20395;-94
2023/11/01 08:36:12;;;;;;;6.35;1.20;;;;;;;14.41;100.00;98697.94;4874705;29;20117;-94
2023/11/01 08:38:38;;;;;;;8.20;1.33;;;;;;;13.91;100.00;98592.25;4876308;29;20491;-95
2023/11/01 08:41:04;;;;;;;5.65;1.08;;;;;;;13.63;100.00;98589.88;4870956;29;20057;-95
2023/11/01 08:43:32;;;;;;;6.82;1.15;;;;;;;13.97;100.00;98596.47;4869761;29;20140;-95
2023/11/01 08:46:04;;;;;;;5.00;1.10;;;;;;;14.09;100.00;98600.41;4870852;29;20079;-95
2023/11/01 08:48:36;;;;;;;9.95;1.38;;;;;;;14.50;100.00;98660.06;4869335;29;20061;-95
2023/11/01 08:51:10;;;;;;;5.88;1.30;;;;;;;14.32;100.00;98620.78;4873367;29;20053;-95
2023/11/01 08:53:51;;;;;;;6.32;1.20;;;;;;;13.96;100.00;98574.19;4878108;29;20056;-96
2023/11/01 08:56:39;;;;;;;8.35;1.98;;;;;;;14.23;100.00;98600.66;4884002;29;20124;-95
2023/11/01 08:59:58;;;;;;;9.70;2.05;;;;;;;14.22;100.00;98616.78;4898810;29;20052;-95
2023/11/01 09:02:49;;;;;;;6.03;1.25;;;;;;;14.34;100.00;98637.63;4878732;29;20069;-95
2023/11/01 09:05:16;;;;;;;6.15;1.85;;;;;;;14.43;100.00;98626.50;4881785;29;20476;-96
2023/11/01 09:07:49;;;;;;;12.30;1.75;;;;;;;15.17;100.00;98757.03;4881793;29;20048;-96
2023/11/01 09:10:54;;;;;;;5.40;1.50;;;;;;;14.52;100.00;98614.53;4888058;29;20068;-95
2023/11/01 09:14:11;;;;;;;3.08;1.30;;;;;;;14.65;100.00;98615.72;4902558;29;20041;-95
2023/11/01 09:27:54;;;;;;;4.57;0.73;;;;;;;15.39;100.00;98706.00;5573578;23;20067;-95
2023/11/01 09:30:27;;;;;;;3.60;1.10;;;;;;;15.03;100.00;98609.50;4920063;29;20059;-95
2023/11/01 09:33:03;;;;;;;4.70;1.20;;;;;;;15.29;100.00;98609.13;4920457;29;20072;-94
2023/11/01 09:35:34;;;;;;;7.03;1.42;;;;;;;15.12;100.00;98598.38;4918689;29;20144;-93
2023/11/01 09:38:15;;;;;;;3.22;0.57;;;;;;;16.02;100.00;98736.00;4939212;29;20059;-96
2023/11/01 09:43:51;;;;;;;4.80;0.82;;;;;;;15.39;100.00;98696.16;4931270;29;20044;-93
2023/11/01 09:46:21;;;;;;;8.18;1.20;;;;;;;15.15;100.00;98603.56;4915153;29;20446;-94
2023/11/01 09:48:54;;;;;;;7.40;1.30;;;;;;;14.57;100.00;98585.75;4914386;29;20072;-95
2023/11/01 09:51:27;;;;;;;3.97;1.00;;;;;;;14.30;100.00;98571.84;4916515;29;20086;-95
2023/11/01 09:54:27;;;;;;;4.15;1.30;;;;;;;15.43;100.00;98723.66;4916697;29;20072;-94
2023/11/01 10:05:36;;;;;;;9.10;1.00;;;;;;;15.65;100.00;98715.47;4796643;30;20051;-93
2023/11/01 10:09:01;;;;;;;9.35;1.38;;;;;;;15.88;100.00;98713.53;4781018;30;20133;-94
2023/11/01 10:15:21;;;;;;;3.20;0.60;;;;;;;15.66;100.00;98601.94;4778392;30;20051;-95
2023/11/01 10:17:51;;;;;;;6.85;0.85;;;;;;;16.11;100.00;98631.88;4805680;29;20061;-95
2023/11/01 10:20:22;;;;;;;7.45;1.30;;;;;;;16.28;100.00;98647.97;4813516;29;20050;-95
2023/11/01 10:22:52;;;;;;;4.88;1.10;;;;;;;16.44;100.00;98669.50;4868498;29;20049;-95
2023/11/01 10:25:25;;;;;;;4.97;0.63;;;;;;;15.97;100.00;98573.59;4866999;29;20053;-95
2023/11/01 10:27:59;;;;;;;4.72;0.65;;;;;;;15.91;100.00;98566.72;4851601;29;20207;-95
2023/11/01 10:36:58;;;;;;;4.93;1.27;;;;;;;15.77;100.00;98540.63;4797616;29;20207;-93
2023/11/01 10:39:39;;;;;;;7.95;0.93;;;;;;;15.79;100.00;98562.00;4806390;29;20425;-94
2023/11/01 10:42:40;;;;;;;6.25;0.90;;;;;;;16.14;100.00;98696.97;4847375;29;20421;-95
2023/11/01 10:45:27;;;;;;;2.70;0.80;;;;;;;15.57;100.00;98540.75;4848153;29;20053;-93
2023/11/01 10:48:10;;;;;;;6.72;1.10;;;;;;;16.28;100.00;98661.38;4831149;29;20049;-94
2023/11/01 10:50:40;;;;;;;4.95;1.02;;;;;;;15.35;100.00;98520.44;4831804;29;20085;-95
2023/11/01 10:53:07;;;;;;;6.28;3.55;;;;;;;15.49;100.00;98570.63;4848601;29;20050;-93
2023/11/01 10:55:35;;;;;;;3.47;0.70;;;;;;;15.57;100.00;98532.72;4848288;29;20110;-95
2023/11/01 10:58:05;;;;;;;3.30;1.25;;;;;;;15.84;100.00;98530.47;4845915;29;20057;-95
2023/11/01 11:00:36;;;;;;;5.32;1.23;;;;;;;16.44;100.00;98623.88;4831464;29;20075;-96
2023/11/01 11:03:18;;;;;;;5.22;1.15;;;;;;;15.54;100.00;98508.75;4847034;29;20061;-93
2023/11/01 11:05:45;;;;;;;8.48;1.05;;;;;;;15.99;100.00;98625.34;4830959;29;20193;-94
2023/11/01 11:08:18;;;;;;;5.93;1.08;;;;;;;15.58;100.00;98521.06;4849088;29;20058;-95
2023/11/01 11:10:50;;;;;;;7.82;1.40;;;;;;;15.70;100.00;98509.72;4868045;29;20403;-93
2023/11/01 11:13:34;;;;;;;6.60;0.90;;;;;;;15.63;100.00;98518.13;4886884;29;20069;-95
2023/11/01 11:16:06;;;;;;;6.20;1.00;;;;;;;16.05;100.00;98589.25;4882179;29;20045;-95
2023/11/01 11:19:20;;;;;;;3.13;1.20;;;;;;;15.79;100.00;98519.13;4869297;29;20561;-94
2023/11/01 11:28:44;;;;;;;4.43;1.73;;;;;;;16.60;100.00;98597.06;4885422;29;20045;-93
2023/11/01 11:32:01;;;;;;;;;;;;;;;;;;;;;
2023/11/01 11:35:55;;;;;;;;;;;;;;;;;;;;;
2023/11/01 11:53:22;;;;;;;6.20;1.00;;;;;;;17.60;100.00;98569.97;4758883;30;20051;-93
2023/11/01 11:59:56;;;;;;;;;;;;;;;;;;;;;
2023/11/01 12:10:06;;;;;;;9.57;1.50;;;;;;;16.54;100.00;98415.72;4768035;30;20074;-95
2023/11/01 12:19:55;;;;;;;5.63;1.00;;;;;;;17.21;100.00;98504.16;4865108;29;20036;-95
2023/11/01 12:26:43;;;;;;;5.38;1.50;;;;;;;17.04;100.00;98441.53;4820362;29;20533;-96
2023/11/01 12:33:58;;;;;;;5.35;1.13;;;;;;;16.49;100.00;98385.63;4787303;29;20040;-96
2023/11/01 12:44:03;;;;;;;3.67;0.68;;;;;;;16.60;100.00;98371.56;4770692;30;20047;-95
2023/11/01 12:46:35;;;;;;;4.85;1.02;;;;;;;15.82;100.00;98350.88;4762639;30;20457;-93
2023/11/01 12:49:01;;;;;;;6.30;1.02;;;;;;;15.87;100.00;98341.72;4760749;30;20055;-94
2023/11/01 12:51:30;;;;;;;5.22;1.33;;;;;;;16.73;100.00;98446.91;4763858;29;20052;-96
2023/11/01 12:57:50;;;;;;;5.53;0.73;;;;;;;17.34;100.00;98454.09;4762404;30;20074;-92
2023/11/01 13:00:24;;;;;;;6.72;1.23;;;;;;;16.45;100.00;98329.53;4844094;29;20095;-92
2023/11/01 13:02:54;;;;;;;6.45;1.08;;;;;;;16.43;100.00;98343.03;4853174;29;20148;-95
2023/11/01 13:05:23;;;;;;;13.73;1.65;;;;;;;16.68;100.00;98369.31;4895900;29;20045;-95
2023/11/01 13:07:57;;;;;;;4.40;1.52;;;;;;;16.29;100.00;98317.00;4900860;29;20049;-96
2023/11/01 13:35:33;;;;;;;9.05;1.27;;;;;;;16.30;100.00;98320.53;4929056;29;20048;-93
2023/11/01 13:38:04;;;;;;;6.63;1.48;;;;;;;16.76;100.00;98390.34;4929955;29;20142;-94
2023/11/01 13:40:30;;;;;;;5.22;1.08;;;;;;;16.29;100.00;98302.72;4916351;29;20108;-95
2023/11/01 13:42:57;;;;;;;4.70;1.48;;;;;;;16.01;100.00;98290.88;4915430;29;20040;-94
2023/11/01 13:45:28;;;;;;;5.53;1.25;;;;;;;16.04;100.00;98359.56;4913907;29;20051;-95
2023/11/01 13:47:54;;;;;;;4.45;1.50;;;;;;;15.73;100.00;98324.59;4909978;29;20513;-93
2023/11/01 13:50:22;;;;;;;6.28;1.23;;;;;;;15.72;100.00;98288.03;4910477;29;20048;-94
2023/11/01 13:52:56;;;;;;;10.68;1.38;;;;;;;15.75;100.00;98306.63;4911646;29;20058;-94
2023/11/01 13:55:32;;;;;;;5.25;1.58;;;;;;;16.23;100.00;98366.50;4914217;29;20051;-96
2023/11/01 13:58:01;;;;;;;7.35;1.77;;;;;;;15.72;100.00;98273.75;4916892;29;20076;-94
2023/11/01 14:00:33;;;;;;;6.90;1.48;;;;;;;16.19;100.00;98346.16;4917340;29;20052;-95
2023/11/01 14:03:11;;;;;;;5.38;1.20;;;;;;;15.59;100.00;98265.47;4913840;29;20059;-93
2023/11/01 14:05:43;;;;;;;5.32;1.23;;;;;;;16.16;100.00;98358.91;4911235;29;20484;-94
2023/11/01 14:08:14;;;;;;;6.57;1.15;;;;;;;16.28;100.00;98384.16;4912785;29;20063;-94
2023/11/01 14:10:47;;;;;;;3.17;1.05;;;;;;;15.51;100.00;98249.00;4912631;29;20048;-94
2023/11/01 14:13:21;;;;;;;4.78;1.55;;;;;;;15.61;100.00;98259.13;4912184;29;20052;-95
2023/11/01 14:15:48;;;;;;;3.10;1.17;;;;;;;15.65;100.00;98243.69;4910496;29;20093;-93
2023/11/01 14:18:19;;;;;;;6.60;1.63;;;;;;;15.71;100.00;98275.56;4907949;29;20138;-93
2023/11/01 14:21:26;;;;;;;6.22;1.27;;;;;;;15.48;100.00;98252.69;4906032;29;20236;-93